Almond, New York
Current Conditions -  °F | °C
As of 4:54 AM on Monday 20 Oct 2014 (Local Time) from KDSV Reporting Station
Scattered Clouds Scattered Clouds  
Wind Chill: 32°   Ceiling: Unl
Heat Index: 38°   Visibility: 10mi
Dew Point: 33°   Wind: 8mph
Humidity: 83%   Direction: 130°SE
Pressure: 30.01"   Gusts: NA
Location:  42.32°N, 77.74°W
Report Text: KDSV 200854Z AUTO 13007KT 10SM SCT120 03/01 A3001 RMK AO2 SLP174 T00330006 56011
Loading
Personal Weather Stations






























Interactive Weather Map
Tropical Storm Tracking
New forecast layout! Learn more

10-Day Weather Forecast

Advertisements
Track Severe Weather on mobile